Etusivu
METAR-TAF:

METAR-TAF

Lentoasemat :

Curaçao, Alankomaiden Antillit

Leveyspiiri: 12-12N, Pituuspiiri: 068-58W, korkeus merenpinnasta: 9 m

Tämänhetkinen sää

Tämä raportti tehtiin 3 tuntia ja 50 minuuttia sitten, kello 09.00 UTC
Tuuli 10 kn idästä/kaakosta
Lämpötila 26°C
Kosteus 84%
Ilmanpaine 1011 hPa
Näkyvyys 10 km tai enemmän
Muutamia pilviä 1700 ft:n korkeudessa

METAR: TNCC 270900Z 11010KT 9999 FEW017 26/23 Q1011 NOSIG

Aika: 08:50 (12:50 UTC)

Sääennuste

Tämä raportti tehtiin 3 tuntia ja 50 minuuttia sitten, kello 09.00 UTC
Ennuste voimassa 27. päivästä klo 12 UTC - 28. päivään klo 12 UTC
Tuuli 14 kn idästä/kaakosta puuskistuen 25 kn:hen
Näkyvyys 10 km tai enemmän
Hajanaisia pilviä 2000 ft:n korkeudessa
Ajoittain
28. päivästä klo 08 UTC - 28. päivään klo 12 UTC
Hajonneita pilviä 1400 ft:n korkeudessa

TAF: TNCC 270900Z 2712/2812 11014G25KT 9999 SCT020 TEMPO 2808/2812 BKN014

Säähavainnot ja -ennusteet yli 4000 lentoasemalta (METAR- ja TAF-raportit).

Käytössä olevat sääasemat on merkitty karttaan keltaisilla ja punaisilla pisteillä.

Aseta hiiri pisteen päälle nähdäksesi sääaseman nimen.

Klikkaa sitten nähdäksesi säähavainnot ja -ennusteet.

Kartan vaihtaminen: klikkaa mustalla rastilla varustettuja vihreitä pisteitä, niin voit zoomata sisään; viivalla varustettua vihreää pistettä, niin voit zoomata ulos tai vihreitä nuolia, niin pääset viereisille kartoille.


METAR-TAF: